createdAt,value
2023-02-26T00:01:24.378Z,100880.94
2023-02-26T00:03:56.643Z,100889.00
2023-02-26T00:06:24.584Z,100784.16
2023-02-26T00:08:51.449Z,100890.06
2023-02-26T00:11:18.684Z,100893.25
2023-02-26T00:13:45.802Z,100881.63
2023-02-26T00:16:28.309Z,100903.69
2023-02-26T00:18:56.228Z,100889.94
2023-02-26T00:21:24.153Z,100898.84
2023-02-26T00:23:51.032Z,100887.66
2023-02-26T00:26:17.769Z,100886.22
2023-02-26T00:28:44.548Z,100895.59
2023-02-26T00:31:11.998Z,100914.34
2023-02-26T00:33:39.193Z,100900.56
2023-02-26T00:36:41.665Z,100917.59
2023-02-26T00:39:47.341Z,100917.84
2023-02-26T00:42:14.513Z,100890.47
2023-02-26T00:44:41.434Z,100914.47
2023-02-26T00:47:30.843Z,100919.16
2023-02-26T00:50:19.838Z,100921.84
2023-02-26T00:52:50.707Z,100930.78
2023-02-26T00:55:17.506Z,100928.38
2023-02-26T00:57:44.278Z,100928.88
2023-02-26T01:00:11.679Z,100935.44
2023-02-26T01:02:39.329Z,100931.66
2023-02-26T01:05:07.102Z,100916.03
2023-02-26T01:07:41.204Z,100922.13
2023-02-26T01:10:11.269Z,100952.75
2023-02-26T01:12:38.227Z,100954.81
2023-02-26T01:15:05.768Z,100939.84
2023-02-26T01:17:40.812Z,100936.56
2023-02-26T01:20:17.927Z,100957.03
2023-02-26T01:22:51.383Z,100956.59
2023-02-26T01:25:29.290Z,100862.22
2023-02-26T01:27:58.697Z,100951.59
2023-02-26T01:30:26.013Z,100957.97
2023-02-26T01:32:59.075Z,100966.28
2023-02-26T01:35:43.886Z,100972.16
2023-02-26T01:38:27.304Z,100963.59
2023-02-26T01:41:15.190Z,100970.75
2023-02-26T01:44:14.403Z,100928.94
2023-02-26T01:47:02.713Z,100982.88
2023-02-26T01:49:30.051Z,100979.63
2023-02-26T01:51:57.785Z,100985.91
2023-02-26T01:54:29.015Z,100975.06
2023-02-26T01:57:09.386Z,100993.44
2023-02-26T01:59:42.738Z,100983.75
2023-02-26T02:02:10.867Z,100990.22
2023-02-26T02:04:38.272Z,100966.09
2023-02-26T02:07:06.260Z,100973.72
2023-02-26T02:09:33.172Z,100972.44
2023-02-26T02:12:11.575Z,101003.19
2023-02-26T02:15:01.183Z,100994.31
2023-02-26T02:17:45.996Z,100996.72
2023-02-26T02:20:37.286Z,101003.72
2023-02-26T02:23:33.467Z,101007.44
2023-02-26T02:26:35.576Z,101008.44
2023-02-26T02:29:26.544Z,101012.19
2023-02-26T02:32:04.337Z,101014.84
2023-02-26T02:34:42.004Z,101017.47
2023-02-26T02:37:11.602Z,101017.31
2023-02-26T02:39:45.267Z,101025.53
2023-02-26T02:42:26.269Z,101020.19
2023-02-26T02:45:10.803Z,101034.63
2023-02-26T02:47:40.819Z,101029.19
2023-02-26T02:50:21.611Z,101011.59
2023-02-26T02:53:11.827Z,101014.41
2023-02-26T02:55:41.884Z,101026.41
2023-02-26T02:58:18.385Z,101035.13
2023-02-26T03:00:53.058Z,101041.25
2023-02-26T03:03:52.560Z,101044.66
2023-02-26T03:06:19.489Z,101026.75
2023-02-26T03:08:47.741Z,101041.06
2023-02-26T03:11:14.318Z,101049.06
2023-02-26T03:13:41.969Z,101050.59
2023-02-26T03:16:39.469Z,101053.84
2023-02-26T03:19:26.185Z,101031.03
2023-02-26T03:22:03.336Z,101067.09
2023-02-26T03:24:34.601Z,101060.41
2023-02-26T03:27:10.082Z,101072.63
2023-02-26T03:29:43.824Z,101074.75
2023-02-26T03:32:22.028Z,101063.50
2023-02-26T03:35:08.996Z,101079.19
2023-02-26T03:37:54.249Z,101062.00
2023-02-26T03:40:52.621Z,101093.53
2023-02-26T03:43:24.468Z,101084.63
2023-02-26T03:45:53.467Z,101079.38
2023-02-26T03:48:23.546Z,101100.84
2023-02-26T03:50:52.752Z,101093.41
2023-02-26T03:53:25.439Z,101112.00
2023-02-26T03:56:12.933Z,101094.53
2023-02-26T03:58:39.555Z,101117.19
2023-02-26T04:01:13.920Z,101108.84
2023-02-26T04:04:10.183Z,101128.53
2023-02-26T04:06:36.819Z,101117.16
2023-02-26T04:09:06.111Z,101122.47
2023-02-26T04:11:32.843Z,101140.44
2023-02-26T04:13:59.409Z,101145.22
2023-02-26T04:16:26.874Z,101128.56
2023-02-26T04:18:53.618Z,101155.50
2023-02-26T04:21:22.614Z,101138.53
2023-02-26T04:23:49.465Z,101153.28
2023-02-26T04:26:16.208Z,101138.00
2023-02-26T04:28:42.945Z,101134.94
2023-02-26T04:31:10.460Z,101144.53
2023-02-26T04:33:37.466Z,101155.25
2023-02-26T04:36:04.989Z,101163.47
2023-02-26T04:38:31.761Z,101145.44
2023-02-26T04:40:58.530Z,101155.50
2023-02-26T04:43:25.122Z,101175.38
2023-02-26T04:45:51.693Z,101168.31
2023-02-26T04:48:18.457Z,101150.38
2023-02-26T04:50:45.747Z,101196.53
2023-02-26T04:53:12.676Z,101195.00
2023-02-26T04:55:41.011Z,101189.78
2023-02-26T04:58:08.194Z,101194.53
2023-02-26T05:00:34.887Z,101194.06
2023-02-26T05:03:01.409Z,101184.56
2023-02-26T05:05:27.942Z,101201.00
2023-02-26T05:07:56.739Z,101183.38
2023-02-26T05:10:24.869Z,101177.19
2023-02-26T05:12:51.468Z,101200.59
2023-02-26T05:15:18.156Z,101185.41
2023-02-26T05:17:44.772Z,101205.97
2023-02-26T05:20:11.901Z,101189.50
2023-02-26T05:22:39.152Z,101185.78
2023-02-26T05:25:06.398Z,101223.06
2023-02-26T05:27:33.902Z,101210.69
2023-02-26T05:30:00.514Z,101215.25
2023-02-26T05:32:27.601Z,101216.53
2023-02-26T05:34:54.220Z,101236.63
2023-02-26T05:37:20.985Z,101224.31
2023-02-26T05:39:47.755Z,101189.59
2023-02-26T05:42:14.326Z,101244.59
2023-02-26T05:44:40.888Z,101246.09
2023-02-26T05:47:07.453Z,101203.84
2023-02-26T05:49:33.963Z,101242.13
2023-02-26T05:52:00.927Z,101220.34
2023-02-26T05:54:27.484Z,101239.44
2023-02-26T05:56:54.067Z,101245.69
2023-02-26T05:59:20.635Z,101239.50
2023-02-26T06:01:47.213Z,101270.63
2023-02-26T06:04:13.817Z,101278.47
2023-02-26T06:06:40.698Z,101284.47
2023-02-26T06:09:08.948Z,101286.22
2023-02-26T06:11:35.549Z,101292.19
2023-02-26T06:14:02.132Z,101297.53
2023-02-26T06:16:29.093Z,101303.22
2023-02-26T06:18:55.851Z,101284.44
2023-02-26T06:21:22.426Z,101292.41
2023-02-26T06:23:48.959Z,101320.44
2023-02-26T06:26:15.565Z,101326.66
2023-02-26T06:28:42.254Z,101309.59
2023-02-26T06:31:08.847Z,101324.06
2023-02-26T06:33:35.572Z,101335.22
2023-02-26T06:36:02.557Z,101335.31
2023-02-26T06:38:29.507Z,101345.47
2023-02-26T06:40:56.357Z,101347.91
2023-02-26T06:43:23.097Z,101328.16
2023-02-26T06:45:49.790Z,101322.69
2023-02-26T06:48:16.594Z,101350.06
2023-02-26T06:50:43.404Z,101342.41
2023-02-26T06:53:10.028Z,101369.84
2023-02-26T06:55:37.050Z,101349.41
2023-02-26T06:58:03.602Z,101379.31
2023-02-26T07:00:30.384Z,101385.13
2023-02-26T07:02:58.282Z,101391.19
2023-02-26T07:05:25.309Z,101380.44
2023-02-26T07:07:51.838Z,101363.84
2023-02-26T07:10:18.432Z,101387.09
2023-02-26T07:12:45.050Z,101400.28
2023-02-26T07:15:11.815Z,101384.13
2023-02-26T07:17:38.295Z,101391.84
2023-02-26T07:20:10.202Z,101406.53
2023-02-26T07:22:37.908Z,101412.97
2023-02-26T07:25:05.606Z,101410.19
2023-02-26T07:27:33.388Z,101410.63
2023-02-26T07:30:00.579Z,101402.97
2023-02-26T07:32:27.522Z,101410.97
2023-02-26T07:34:54.335Z,101421.22
2023-02-26T07:37:20.928Z,101417.28
2023-02-26T07:39:47.666Z,101416.44
2023-02-26T07:42:14.236Z,101419.88
2023-02-26T07:44:40.806Z,101441.53
2023-02-26T07:47:07.611Z,101447.34
2023-02-26T07:49:34.190Z,101436.91
2023-02-26T07:52:01.398Z,101441.50
2023-02-26T07:54:28.190Z,101448.34
2023-02-26T07:56:54.860Z,101445.59
2023-02-26T07:59:21.685Z,101462.09
2023-02-26T08:01:48.586Z,101468.28
2023-02-26T08:04:15.438Z,101363.16
2023-02-26T08:06:42.034Z,101470.13
2023-02-26T08:09:08.750Z,101476.63
2023-02-26T08:11:39.632Z,101474.63
2023-02-26T08:14:11.008Z,101478.91
2023-02-26T08:16:37.580Z,101459.88
2023-02-26T08:19:04.396Z,101484.75
2023-02-26T08:21:31.354Z,101469.09
2023-02-26T08:23:57.869Z,101470.69
2023-02-26T08:26:25.310Z,101486.72
2023-02-26T08:28:52.110Z,101466.09
2023-02-26T08:31:19.237Z,101461.06
2023-02-26T08:33:46.921Z,101482.59
2023-02-26T08:36:14.678Z,101464.31
2023-02-26T08:38:41.384Z,101484.59
2023-02-26T08:41:08.317Z,101476.97
2023-02-26T08:43:35.075Z,101479.31
2023-02-26T08:46:01.640Z,101496.75
2023-02-26T08:48:28.274Z,101506.22
2023-02-26T08:50:54.817Z,101512.50
2023-02-26T08:53:21.596Z,101513.13
2023-02-26T08:55:52.608Z,101515.63
2023-02-26T08:58:19.878Z,101521.91
2023-02-26T09:00:46.735Z,101517.91
2023-02-26T09:03:13.395Z,101489.91
2023-02-26T09:05:40.918Z,101507.81
2023-02-26T09:08:08.584Z,101525.13
2023-02-26T09:10:35.297Z,101526.94
2023-02-26T09:13:01.945Z,101529.94
2023-02-26T09:15:28.516Z,101529.31
2023-02-26T09:17:55.254Z,101540.28
2023-02-26T09:20:22.101Z,101512.78
2023-02-26T09:22:48.749Z,101525.72
2023-02-26T09:25:15.502Z,101544.09
2023-02-26T09:27:42.084Z,101509.41
2023-02-26T09:30:09.620Z,101537.25
2023-02-26T09:32:36.581Z,101544.19
2023-02-26T09:35:04.513Z,101544.00
2023-02-26T09:37:31.651Z,101538.59
2023-02-26T09:39:58.216Z,101559.56
2023-02-26T09:42:38.557Z,101567.94
2023-02-26T09:45:06.367Z,101575.28
2023-02-26T09:47:46.536Z,101542.03
2023-02-26T09:50:27.135Z,101577.22
2023-02-26T09:53:05.756Z,101581.66
2023-02-26T09:55:43.753Z,101578.84
2023-02-26T09:58:38.639Z,101572.44
2023-02-26T10:01:08.214Z,101583.16
2023-02-26T10:04:20.781Z,101564.41
2023-02-26T10:07:05.728Z,101578.16
2023-02-26T10:09:35.399Z,101567.59
2023-02-26T10:12:08.200Z,101564.44
2023-02-26T10:14:40.276Z,101556.84
2023-02-26T10:17:21.925Z,101552.78
2023-02-26T10:19:52.912Z,101553.06
2023-02-26T10:22:37.848Z,101563.63
2023-02-26T10:25:18.148Z,101565.25
2023-02-26T10:28:12.564Z,101571.44
2023-02-26T10:31:07.677Z,101571.50
2023-02-26T10:33:44.009Z,101573.03
2023-02-26T10:36:33.343Z,101576.63
2023-02-26T10:39:36.670Z,101580.00
2023-02-26T10:42:07.086Z,101582.41
2023-02-26T10:44:49.279Z,101585.16
2023-02-26T10:47:38.482Z,101590.56
2023-02-26T10:50:10.012Z,101586.16
2023-02-26T10:52:36.944Z,101579.63
2023-02-26T10:55:15.138Z,101569.59
2023-02-26T10:57:46.145Z,101586.63
2023-02-26T11:00:19.423Z,101580.09
2023-02-26T11:02:48.529Z,101583.19
2023-02-26T11:05:28.099Z,101584.00
2023-02-26T11:07:59.121Z,101602.69
2023-02-26T11:10:29.031Z,101597.28
2023-02-26T11:12:55.888Z,101608.56
2023-02-26T11:15:23.556Z,101608.09
2023-02-26T11:17:54.346Z,101595.72
2023-02-26T11:20:42.851Z,101599.41
2023-02-26T11:23:15.218Z,101600.66
2023-02-26T11:25:42.037Z,101595.94
2023-02-26T11:28:21.523Z,101592.13
2023-02-26T11:30:49.343Z,101611.03
2023-02-26T11:33:21.996Z,101602.31
2023-02-26T11:35:48.860Z,101593.31
2023-02-26T11:38:22.609Z,101592.75
2023-02-26T11:40:56.114Z,101600.03
2023-02-26T11:43:24.594Z,101591.19
2023-02-26T11:45:57.748Z,101597.38
2023-02-26T11:48:48.404Z,101598.44
2023-02-26T11:51:19.314Z,101597.88
2023-02-26T11:53:52.240Z,101597.47
2023-02-26T11:56:30.821Z,101597.53
2023-02-26T11:59:02.430Z,101580.44
2023-02-26T12:01:29.926Z,101591.69
2023-02-26T12:04:01.801Z,101593.44
2023-02-26T12:06:28.430Z,101573.78
2023-02-26T12:08:55.349Z,101576.44
2023-02-26T12:11:41.163Z,101582.06
2023-02-26T12:14:07.644Z,101578.59
2023-02-26T12:16:52.575Z,101576.03
2023-02-26T12:19:48.262Z,101586.38
2023-02-26T12:22:59.669Z,101581.25
2023-02-26T12:26:00.221Z,101587.41
2023-02-26T12:29:05.777Z,101596.16
2023-02-26T12:31:57.025Z,101589.44
2023-02-26T12:34:35.801Z,101589.81
2023-02-26T12:37:27.243Z,101588.72
2023-02-26T12:40:18.174Z,101569.25
2023-02-26T12:42:53.549Z,101617.56
2023-02-26T12:45:32.159Z,101615.50
2023-02-26T12:48:24.017Z,101632.81
2023-02-26T12:51:10.264Z,101613.38
2023-02-26T12:53:57.147Z,101639.66
2023-02-26T12:56:54.008Z,101538.25
2023-02-26T12:59:29.740Z,101645.50
2023-02-26T13:02:21.209Z,101643.03
2023-02-26T13:05:00.052Z,101637.75
2023-02-26T13:07:49.976Z,101654.81
2023-02-26T13:10:19.843Z,101654.53
2023-02-26T13:12:55.603Z,101657.47
2023-02-26T13:15:40.741Z,101657.84
2023-02-26T13:18:35.351Z,101650.50
2023-02-26T13:21:10.687Z,101660.59
2023-02-26T13:23:50.592Z,101660.06
2023-02-26T13:26:18.059Z,101669.03
2023-02-26T13:28:53.106Z,101628.66
2023-02-26T13:31:27.379Z,101662.00
2023-02-26T13:33:56.096Z,101656.03
2023-02-26T13:36:24.936Z,101653.13
2023-02-26T13:39:26.541Z,101649.66
2023-02-26T13:42:05.522Z,101652.44
2023-02-26T13:44:38.404Z,101645.13
2023-02-26T13:47:20.576Z,101639.69
2023-02-26T13:49:59.148Z,101646.66
2023-02-26T13:52:28.628Z,101654.13
2023-02-26T13:54:56.455Z,101642.31
2023-02-26T13:57:32.195Z,101652.50
2023-02-26T14:00:26.597Z,101640.91
2023-02-26T14:02:54.855Z,101651.19
2023-02-26T14:05:35.465Z,101649.56
2023-02-26T14:08:02.012Z,101654.66
2023-02-26T14:10:51.635Z,101643.94
2023-02-26T14:13:21.888Z,101647.91
2023-02-26T14:16:00.787Z,101638.25
2023-02-26T14:18:39.637Z,101638.63
2023-02-26T14:21:29.064Z,101639.03
2023-02-26T14:23:59.274Z,101642.69
2023-02-26T14:26:28.681Z,101616.47
2023-02-26T14:28:58.524Z,101633.38
2023-02-26T14:31:29.488Z,101622.91
2023-02-26T14:33:56.266Z,101646.19
2023-02-26T14:36:42.572Z,101630.13
2023-02-26T14:39:24.240Z,101644.47
2023-02-26T14:41:58.071Z,101630.31
2023-02-26T14:44:28.608Z,101651.53
2023-02-26T14:46:56.560Z,101652.66
2023-02-26T14:49:31.344Z,101641.91
2023-02-26T14:52:14.784Z,101653.34
2023-02-26T14:54:54.699Z,101646.13
2023-02-26T14:57:36.882Z,101653.47
2023-02-26T15:00:13.733Z,101652.06
2023-02-26T15:03:02.049Z,101650.59
2023-02-26T15:05:56.547Z,101649.47
2023-02-26T15:08:32.355Z,101654.69
2023-02-26T15:11:08.855Z,101633.53
2023-02-26T15:14:08.900Z,101655.09
2023-02-26T15:16:49.899Z,101661.84
2023-02-26T15:19:38.541Z,101656.28
2023-02-26T15:22:18.399Z,101658.31
2023-02-26T15:24:45.026Z,101649.16
2023-02-26T15:27:16.436Z,101667.47
2023-02-26T15:29:43.564Z,101665.25
2023-02-26T15:32:28.520Z,101671.63
2023-02-26T15:35:00.720Z,101650.09
2023-02-26T15:37:30.319Z,101677.44
2023-02-26T15:39:56.942Z,101660.63
2023-02-26T15:42:30.180Z,101671.63
2023-02-26T15:44:58.136Z,101670.59
2023-02-26T15:47:24.775Z,101682.63
2023-02-26T15:49:51.284Z,101663.44
2023-02-26T15:52:19.801Z,101661.94
2023-02-26T15:54:53.442Z,101681.56
2023-02-26T15:57:20.655Z,101685.31
2023-02-26T15:59:50.546Z,101688.84
2023-02-26T16:02:26.517Z,101695.16
2023-02-26T16:04:53.394Z,101691.59
2023-02-26T16:07:20.057Z,101685.91
2023-02-26T16:09:48.879Z,101670.56
2023-02-26T16:12:38.672Z,101690.84
2023-02-26T16:15:11.620Z,101690.34
2023-02-26T16:17:42.716Z,101685.22
2023-02-26T16:20:18.527Z,101697.09
2023-02-26T16:22:50.653Z,101699.69
2023-02-26T16:25:25.126Z,101686.34
2023-02-26T16:28:01.014Z,101704.09
2023-02-26T16:30:35.990Z,101701.75
2023-02-26T16:33:04.517Z,101711.41
2023-02-26T16:35:34.855Z,101705.75
2023-02-26T16:38:12.478Z,101715.69
2023-02-26T16:40:41.363Z,101720.00
2023-02-26T16:43:36.179Z,101724.06
2023-02-26T16:46:05.438Z,101732.59
2023-02-26T16:48:44.595Z,101702.81
2023-02-26T16:51:14.881Z,101720.34
2023-02-26T16:53:45.804Z,101745.00
2023-02-26T16:56:18.191Z,101742.22
2023-02-26T16:58:53.693Z,101729.50
2023-02-26T17:01:21.041Z,101732.56
2023-02-26T17:03:50.736Z,101743.44
2023-02-26T17:06:19.713Z,101744.00
2023-02-26T17:08:55.764Z,101741.22
2023-02-26T17:11:29.856Z,101749.09
2023-02-26T17:14:15.408Z,101743.69
2023-02-26T17:16:42.302Z,101753.34
2023-02-26T17:19:09.561Z,101751.03
2023-02-26T17:21:42.997Z,101757.47
2023-02-26T17:24:15.846Z,101763.28
2023-02-26T17:26:42.824Z,101762.28
2023-02-26T17:29:19.300Z,101775.41
2023-02-26T17:31:46.390Z,101759.53
2023-02-26T17:34:13.636Z,101745.63
2023-02-26T17:36:40.176Z,101743.28
2023-02-26T17:39:07.069Z,101769.84
2023-02-26T17:41:34.269Z,101772.63
2023-02-26T17:44:00.857Z,101751.56
2023-02-26T17:46:27.508Z,101781.97
2023-02-26T17:48:54.157Z,101755.84
2023-02-26T17:51:20.914Z,101763.09
2023-02-26T17:53:47.566Z,101792.31
2023-02-26T17:56:24.195Z,101782.56
2023-02-26T17:58:53.119Z,101779.69
2023-02-26T18:01:19.787Z,101793.59
2023-02-26T18:03:46.876Z,101776.34
2023-02-26T18:06:15.110Z,101795.16
2023-02-26T18:08:46.637Z,101782.84
2023-02-26T18:11:13.675Z,101806.84
2023-02-26T18:13:40.296Z,101800.50
2023-02-26T18:16:12.679Z,101805.81
2023-02-26T18:18:39.216Z,101812.69
2023-02-26T18:21:05.749Z,101805.28
2023-02-26T18:23:32.290Z,101816.19
2023-02-26T18:25:59.429Z,101818.59
2023-02-26T18:28:27.837Z,101814.44
2023-02-26T18:30:55.621Z,101817.31
2023-02-26T18:33:23.241Z,101807.94
2023-02-26T18:35:53.318Z,101823.78
2023-02-26T18:38:22.044Z,101824.00
2023-02-26T18:40:48.811Z,101806.94
2023-02-26T18:43:15.422Z,101832.22
2023-02-26T18:45:48.480Z,101820.56
2023-02-26T18:48:17.326Z,101827.06
2023-02-26T18:50:45.393Z,101836.03
2023-02-26T18:53:12.441Z,101809.94
2023-02-26T18:55:39.209Z,101832.03
2023-02-26T18:58:05.704Z,101833.03
2023-02-26T19:00:32.389Z,101830.69
2023-02-26T19:02:59.240Z,101832.69
2023-02-26T19:05:26.645Z,101820.06
2023-02-26T19:07:54.157Z,101838.47
2023-02-26T19:10:21.324Z,101832.94
2023-02-26T19:12:47.937Z,101836.38
2023-02-26T19:15:14.540Z,101828.44
2023-02-26T19:17:42.102Z,101823.56
2023-02-26T19:20:09.489Z,101819.28
2023-02-26T19:22:36.080Z,101813.88
2023-02-26T19:25:02.704Z,101832.84
2023-02-26T19:27:29.225Z,101831.81
2023-02-26T19:29:55.818Z,101817.25
2023-02-26T19:32:22.804Z,101836.72
2023-02-26T19:34:49.503Z,101824.38
2023-02-26T19:37:16.024Z,101822.03
2023-02-26T19:39:42.564Z,101811.97
2023-02-26T19:42:09.179Z,101844.28
2023-02-26T19:44:36.005Z,101835.34
2023-02-26T19:47:02.726Z,101847.38
2023-02-26T19:49:29.906Z,101831.56
2023-02-26T19:51:56.506Z,101860.53
2023-02-26T19:54:23.069Z,101861.88
2023-02-26T19:56:50.976Z,101860.59
2023-02-26T19:59:18.761Z,101867.06
2023-02-26T20:01:49.139Z,101868.94
2023-02-26T20:04:17.032Z,101871.78
2023-02-26T20:06:43.821Z,101849.31
2023-02-26T20:09:12.108Z,101865.28
2023-02-26T20:11:39.584Z,101859.75
2023-02-26T20:14:06.570Z,101875.59
2023-02-26T20:16:33.313Z,101877.13
2023-02-26T20:19:00.192Z,101856.22
2023-02-26T20:21:27.440Z,101882.31
2023-02-26T20:23:54.442Z,101878.13
2023-02-26T20:26:21.095Z,101887.81
2023-02-26T20:28:47.711Z,101868.28
2023-02-26T20:31:14.347Z,101896.22
2023-02-26T20:33:41.277Z,101873.00
2023-02-26T20:36:09.323Z,101881.56
2023-02-26T20:38:36.269Z,101905.28
2023-02-26T20:41:03.725Z,101903.41
2023-02-26T20:43:30.353Z,101880.69
2023-02-26T20:45:57.208Z,101898.97
2023-02-26T20:48:24.396Z,101894.84
2023-02-26T20:50:53.567Z,101893.59
2023-02-26T20:53:23.277Z,101897.78
2023-02-26T20:55:49.999Z,101887.63
2023-02-26T20:58:16.981Z,101895.94
2023-02-26T21:00:43.863Z,101913.88
2023-02-26T21:03:10.514Z,101895.22
2023-02-26T21:05:38.537Z,101892.41
2023-02-26T21:08:05.465Z,101890.19
2023-02-26T21:10:32.711Z,101909.56
2023-02-26T21:12:59.969Z,101893.38
2023-02-26T21:15:26.731Z,101913.13
2023-02-26T21:17:53.796Z,101916.09
2023-02-26T21:20:22.234Z,101899.88
2023-02-26T21:22:49.702Z,101917.81
2023-02-26T21:25:16.672Z,101922.22
2023-02-26T21:27:43.380Z,101920.22
2023-02-26T21:30:11.992Z,101922.69
2023-02-26T21:32:39.101Z,101910.81
2023-02-26T21:35:07.025Z,101910.00
2023-02-26T21:37:33.602Z,101913.22
2023-02-26T21:40:00.156Z,101910.66
2023-02-26T21:42:26.975Z,101913.13
2023-02-26T21:44:56.245Z,101910.41
2023-02-26T21:47:22.743Z,101910.31
2023-02-26T21:49:49.300Z,101932.03
2023-02-26T21:52:15.908Z,101913.47
2023-02-26T21:54:42.450Z,101926.19
2023-02-26T21:57:09.379Z,101930.03
2023-02-26T21:59:35.994Z,101932.78
2023-02-26T22:02:03.180Z,101933.47
2023-02-26T22:04:30.223Z,101926.66
2023-02-26T22:06:57.022Z,101931.16
2023-02-26T22:09:23.591Z,101942.13
2023-02-26T22:11:50.198Z,101940.56
2023-02-26T22:14:17.138Z,101937.28
2023-02-26T22:16:43.986Z,101925.44
2023-02-26T22:19:11.081Z,101923.00
2023-02-26T22:21:37.621Z,101942.28
2023-02-26T22:24:05.255Z,101938.72
2023-02-26T22:26:32.241Z,101945.72
2023-02-26T22:29:00.648Z,101951.88
2023-02-26T22:31:29.450Z,101932.56
2023-02-26T22:33:57.321Z,101962.44
2023-02-26T22:36:24.796Z,101945.19
2023-02-26T22:38:51.462Z,101973.03
2023-02-26T22:41:17.997Z,101971.03
2023-02-26T22:43:44.642Z,101962.78
2023-02-26T22:46:11.490Z,101987.59
2023-02-26T22:48:38.401Z,101986.47
2023-02-26T22:51:05.110Z,101972.81
2023-02-26T22:53:31.925Z,101976.53
2023-02-26T22:55:58.660Z,101986.84
2023-02-26T22:58:25.320Z,101979.72
2023-02-26T23:01:01.586Z,101993.94
2023-02-26T23:03:29.306Z,101991.66
2023-02-26T23:05:56.366Z,101970.31
2023-02-26T23:08:23.170Z,101989.66
2023-02-26T23:10:49.745Z,102003.22
2023-02-26T23:13:16.607Z,101988.31
2023-02-26T23:15:43.191Z,101962.88
2023-02-26T23:18:09.734Z,101976.81
2023-02-26T23:20:36.310Z,101968.56
2023-02-26T23:23:02.877Z,101989.13
2023-02-26T23:25:29.642Z,101977.25
2023-02-26T23:27:56.177Z,101995.09
2023-02-26T23:30:22.793Z,101949.38
2023-02-26T23:32:49.470Z,101991.28
2023-02-26T23:35:16.016Z,101973.91
2023-02-26T23:37:42.552Z,101969.88
2023-02-26T23:40:10.009Z,101996.25
2023-02-26T23:42:36.520Z,101975.34
2023-02-26T23:45:03.298Z,101991.69
2023-02-26T23:47:29.877Z,101974.06
2023-02-26T23:49:56.410Z,101984.16
2023-02-26T23:52:25.673Z,101986.88
2023-02-26T23:54:52.884Z,102016.41
2023-02-26T23:57:19.418Z,101994.22
2023-02-26T23:59:45.966Z,102019.63
